Time;durP1;ratioP1;P1;durP2;ratioP2;P2;SDS_P1;SDS_P2;PMS_P1;PMS_P2;Temp;Humidity;BMP_temperature;BMP_pressure;BME280_temperature;BME280_humidity;BME280_pressure;Samples;Min_cycle;Max_cycle;Signal;HPM_P1;HPM_P2
2023/07/07 00:01:52;;;;;;;5.43;4.50;;;16.10;99.90;;;;;;5012033;28;20179;-41
2023/07/07 00:04:19;;;;;;;5.63;4.30;;;16.00;99.90;;;;;;4994792;28;20186;-41
2023/07/07 00:06:46;;;;;;;5.27;4.00;;;15.90;99.90;;;;;;4989384;28;20184;-38
2023/07/07 00:09:11;;;;;;;4.07;3.63;;;15.80;99.90;;;;;;4995461;28;20211;-39
2023/07/07 00:11:37;;;;;;;5.63;4.27;;;15.80;99.90;;;;;;4999024;28;20180;-35
2023/07/07 00:14:03;;;;;;;5.77;4.17;;;15.70;99.90;;;;;;4997714;28;20206;-40
2023/07/07 00:16:29;;;;;;;5.87;3.70;;;15.70;99.90;;;;;;4993685;28;20187;-39
2023/07/07 00:18:57;;;;;;;5.47;4.30;;;15.50;99.90;;;;;;5001164;28;20258;-39
2023/07/07 00:21:25;;;;;;;5.23;4.07;;;15.50;99.90;;;;;;4996295;28;20186;-39
2023/07/07 00:23:55;;;;;;;5.37;3.37;;;15.50;99.90;;;;;;4995504;28;20702;-39
2023/07/07 00:26:24;;;;;;;4.70;3.83;;;15.50;99.90;;;;;;4994153;28;20183;-38
2023/07/07 00:28:50;;;;;;;6.27;4.10;;;15.40;99.90;;;;;;4993082;28;20225;-41
2023/07/07 00:31:17;;;;;;;4.63;3.90;;;15.40;99.90;;;;;;4993015;28;20179;-38
2023/07/07 00:33:43;;;;;;;3.93;3.50;;;15.40;99.90;;;;;;4999812;28;20243;-39
2023/07/07 00:36:11;;;;;;;5.50;3.70;;;15.40;99.90;;;;;;5005916;28;20175;-39
2023/07/07 00:38:37;;;;;;;4.63;4.13;;;15.40;99.90;;;;;;4988318;28;20227;-37
2023/07/07 00:41:04;;;;;;;5.30;4.30;;;15.40;99.90;;;;;;5012017;28;20211;-41
2023/07/07 00:43:30;;;;;;;4.47;4.00;;;15.40;99.90;;;;;;4992176;28;20184;-38
2023/07/07 00:45:57;;;;;;;7.80;4.10;;;15.50;99.90;;;;;;4994591;28;20180;-37
2023/07/07 00:48:42;;;;;;;4.57;3.87;;;15.40;99.90;;;;;;4995359;28;20241;-36
2023/07/07 00:51:21;;;;;;;5.37;3.73;;;15.40;99.90;;;;;;5008050;28;20214;-38
2023/07/07 00:53:51;;;;;;;4.73;4.00;;;15.40;99.90;;;;;;4994548;28;20217;-39
2023/07/07 00:56:23;;;;;;;6.03;4.07;;;15.30;99.90;;;;;;4992024;28;20203;-38
2023/07/07 00:58:50;;;;;;;4.77;3.80;;;15.20;99.90;;;;;;4986140;28;20675;-38
2023/07/07 01:01:17;;;;;;;6.67;4.10;;;15.20;99.90;;;;;;4991995;28;20558;-40
2023/07/07 01:04:00;;;;;;;4.83;3.63;;;15.10;99.90;;;;;;5009536;28;20192;-40
2023/07/07 01:06:36;;;;;;;5.50;4.40;;;15.10;99.90;;;;;;4990126;28;20187;-38
2023/07/07 01:09:08;;;;;;;4.83;3.90;;;15.00;99.90;;;;;;5003855;28;20205;-41
2023/07/07 01:11:36;;;;;;;6.10;3.90;;;15.00;99.90;;;;;;4993224;28;20187;-36
2023/07/07 01:14:15;;;;;;;5.40;3.80;;;14.90;99.90;;;;;;4983839;28;20175;-40
2023/07/07 01:16:53;;;;;;;4.87;4.00;;;15.00;99.90;;;;;;4994519;28;20193;-38
2023/07/07 01:19:44;;;;;;;4.97;4.10;;;14.90;99.90;;;;;;5007543;28;20278;-39
2023/07/07 01:22:31;;;;;;;5.40;3.93;;;14.90;99.90;;;;;;4981225;28;20199;-39
2023/07/07 01:25:03;;;;;;;4.77;4.23;;;14.90;99.90;;;;;;5019205;28;20218;-38
2023/07/07 01:27:44;;;;;;;4.17;3.77;;;14.80;99.90;;;;;;5005800;28;20211;-38
2023/07/07 01:30:34;;;;;;;4.40;3.37;;;14.80;99.90;;;;;;4990269;28;20187;-36
2023/07/07 01:33:09;;;;;;;7.47;4.53;;;14.80;99.90;;;;;;4988947;28;20276;-39
2023/07/07 01:35:35;;;;;;;5.60;4.10;;;14.80;99.90;;;;;;4993979;28;20191;-38
2023/07/07 01:38:02;;;;;;;4.67;4.07;;;14.70;99.90;;;;;;4993024;28;20211;-36
2023/07/07 01:40:37;;;;;;;7.13;4.03;;;14.70;99.90;;;;;;4986131;28;20230;-38
2023/07/07 01:43:21;;;;;;;4.50;3.80;;;14.60;99.90;;;;;;4993109;28;20203;-37
2023/07/07 01:45:55;;;;;;;6.63;4.57;;;14.60;99.90;;;;;;4993715;28;20187;-40
2023/07/07 01:48:41;;;;;;;5.13;3.63;;;14.50;99.90;;;;;;5005186;28;20206;-37
2023/07/07 01:51:11;;;;;;;4.37;3.80;;;14.40;99.90;;;;;;4994758;28;20182;-39
2023/07/07 01:53:39;;;;;;;5.20;3.70;;;14.40;99.90;;;;;;5006417;28;20269;-38
2023/07/07 01:56:07;;;;;;;4.67;3.93;;;14.30;99.90;;;;;;4992471;28;20175;-38
2023/07/07 01:58:34;;;;;;;6.50;4.00;;;14.30;99.90;;;;;;4986345;28;20304;-38
2023/07/07 02:01:01;;;;;;;4.37;3.77;;;14.20;99.90;;;;;;4993587;28;20181;-36
2023/07/07 02:03:28;;;;;;;4.43;3.57;;;14.20;99.90;;;;;;5000254;28;20190;-35
2023/07/07 02:05:54;;;;;;;5.73;4.03;;;14.20;99.90;;;;;;4992669;28;20183;-39
2023/07/07 02:08:20;;;;;;;6.97;4.07;;;14.10;99.90;;;;;;5007053;28;20242;-38
2023/07/07 02:10:46;;;;;;;5.87;4.07;;;14.10;99.90;;;;;;5024997;28;20217;-37
2023/07/07 02:13:12;;;;;;;6.63;4.43;;;14.10;99.90;;;;;;4998946;28;20203;-39
2023/07/07 02:15:38;;;;;;;4.53;3.63;;;14.20;99.90;;;;;;5009256;28;20187;-39
2023/07/07 02:18:04;;;;;;;7.37;3.93;;;14.20;99.90;;;;;;5008829;28;20201;-39
2023/07/07 02:20:30;;;;;;;5.87;3.77;;;14.20;99.90;;;;;;5006482;28;20180;-41
2023/07/07 02:22:56;;;;;;;7.40;4.40;;;14.30;99.90;;;;;;5009816;28;20188;-40
2023/07/07 02:25:22;;;;;;;6.27;3.80;;;14.30;99.90;;;;;;5009865;28;20189;-39
2023/07/07 02:27:48;;;;;;;5.90;4.10;;;14.30;99.90;;;;;;4990492;28;20203;-37
2023/07/07 02:30:14;;;;;;;6.10;3.90;;;14.40;99.90;;;;;;5006332;28;20179;-37
2023/07/07 02:32:40;;;;;;;4.27;3.53;;;14.40;99.90;;;;;;4993498;28;20207;-39
2023/07/07 02:35:06;;;;;;;6.40;4.53;;;14.50;99.90;;;;;;5005956;28;20343;-35
2023/07/07 02:37:33;;;;;;;4.53;3.70;;;14.40;99.90;;;;;;5006208;28;21141;-39
2023/07/07 02:39:59;;;;;;;4.20;3.63;;;14.40;99.90;;;;;;5012423;28;20236;-37
2023/07/07 02:42:25;;;;;;;7.13;4.20;;;14.30;99.90;;;;;;5004547;28;20191;-37
2023/07/07 02:44:51;;;;;;;4.80;4.20;;;14.30;99.90;;;;;;4992507;28;20241;-38
2023/07/07 02:47:17;;;;;;;5.80;4.17;;;14.20;99.90;;;;;;5001375;28;20206;-33
2023/07/07 02:49:43;;;;;;;5.27;3.50;;;14.20;99.90;;;;;;4999602;28;20203;-37
2023/07/07 02:52:09;;;;;;;6.93;3.90;;;14.10;99.90;;;;;;5006926;28;20207;-38
2023/07/07 02:54:35;;;;;;;4.73;3.60;;;14.00;99.90;;;;;;5005445;28;20289;-36
2023/07/07 02:57:02;;;;;;;5.20;3.83;;;14.00;99.90;;;;;;5009355;28;20262;-39
2023/07/07 02:59:28;;;;;;;6.70;4.20;;;14.00;99.90;;;;;;5009138;28;20183;-39
2023/07/07 03:01:54;;;;;;;5.13;3.90;;;13.90;99.90;;;;;;5008289;28;20176;-37
2023/07/07 03:04:24;;;;;;;5.10;3.80;;;13.80;99.90;;;;;;4993094;28;20886;-37
2023/07/07 03:06:51;;;;;;;5.50;4.33;;;13.80;99.90;;;;;;5009074;28;21386;-36
2023/07/07 03:09:17;;;;;;;5.20;4.00;;;13.70;99.90;;;;;;5008988;28;20182;-37
2023/07/07 03:11:45;;;;;;;4.33;3.73;;;13.70;99.90;;;;;;5026982;28;20211;-40
2023/07/07 03:14:11;;;;;;;4.87;3.77;;;13.70;99.90;;;;;;4993416;28;20183;-36
2023/07/07 03:16:47;;;;;;;5.23;4.00;;;13.70;99.90;;;;;;5002392;28;20179;-39
2023/07/07 03:19:16;;;;;;;4.57;3.40;;;13.60;99.90;;;;;;5007878;28;20253;-39
2023/07/07 03:21:55;;;;;;;5.43;3.70;;;13.60;99.90;;;;;;5019573;28;20181;-38
2023/07/07 03:24:27;;;;;;;4.53;3.57;;;13.50;99.90;;;;;;4990141;28;20183;-39
2023/07/07 03:26:53;;;;;;;6.97;4.60;;;13.50;99.90;;;;;;5012775;28;20192;-41
2023/07/07 03:29:22;;;;;;;6.00;3.80;;;13.50;99.90;;;;;;5001541;28;20604;-40
2023/07/07 03:31:49;;;;;;;4.63;3.77;;;13.50;99.90;;;;;;5021403;28;20317;-36
2023/07/07 03:34:17;;;;;;;5.93;4.07;;;13.40;99.90;;;;;;5012859;28;20221;-41
2023/07/07 03:36:45;;;;;;;7.37;4.10;;;13.40;99.90;;;;;;5010870;28;20185;-39
2023/07/07 03:39:14;;;;;;;4.67;3.70;;;13.30;99.90;;;;;;4987171;28;20215;-37
2023/07/07 03:41:42;;;;;;;4.80;3.83;;;13.20;99.90;;;;;;5015719;28;20182;-39
2023/07/07 03:44:09;;;;;;;4.57;4.17;;;13.20;99.90;;;;;;4995377;28;20181;-37
2023/07/07 03:46:36;;;;;;;5.23;3.80;;;13.20;99.90;;;;;;5011547;28;20270;-39
2023/07/07 03:49:03;;;;;;;4.73;3.80;;;13.20;99.90;;;;;;5009699;28;20195;-38
2023/07/07 03:51:35;;;;;;;6.53;4.10;;;13.20;99.90;;;;;;5008600;28;20327;-40
2023/07/07 03:54:05;;;;;;;4.83;3.93;;;13.20;99.90;;;;;;5011991;28;20206;-39
2023/07/07 03:56:32;;;;;;;6.40;3.50;;;13.10;99.90;;;;;;5003734;28;20186;-38
2023/07/07 03:58:58;;;;;;;5.53;3.90;;;13.10;99.90;;;;;;5010667;28;20289;-39
2023/07/07 04:01:24;;;;;;;4.40;3.57;;;13.20;99.90;;;;;;5012009;28;20276;-37
2023/07/07 04:03:52;;;;;;;4.63;3.73;;;13.20;99.90;;;;;;5010211;28;20248;-38
2023/07/07 04:06:19;;;;;;;5.17;3.50;;;13.20;99.90;;;;;;5006577;28;20184;-39
2023/07/07 04:08:46;;;;;;;6.17;4.27;;;13.20;99.90;;;;;;4989671;28;20210;-34
2023/07/07 04:11:31;;;;;;;4.67;4.10;;;13.20;99.90;;;;;;5017214;28;20345;-35
2023/07/07 04:13:58;;;;;;;4.40;3.73;;;13.20;99.90;;;;;;5005433;28;20212;-37
2023/07/07 04:16:26;;;;;;;7.07;4.00;;;13.30;99.90;;;;;;4994700;28;20200;-34
2023/07/07 04:18:58;;;;;;;4.87;3.70;;;13.40;99.90;;;;;;5006569;28;20206;-38
2023/07/07 04:21:34;;;;;;;8.10;4.07;;;13.40;99.90;;;;;;5001590;28;20176;-35
2023/07/07 04:24:10;;;;;;;14.43;4.77;;;13.40;99.90;;;;;;4999202;28;20249;-36
2023/07/07 04:26:41;;;;;;;10.70;4.40;;;13.50;99.90;;;;;;5008797;28;20663;-40
2023/07/07 04:29:12;;;;;;;18.23;5.33;;;13.50;99.90;;;;;;5010679;28;20387;-40
2023/07/07 04:31:45;;;;;;;10.53;5.00;;;13.60;99.90;;;;;;5008493;28;20586;-33
2023/07/07 04:34:15;;;;;;;6.10;4.60;;;13.70;99.90;;;;;;5010878;28;20245;-35
2023/07/07 04:36:41;;;;;;;5.90;3.93;;;13.70;99.90;;;;;;5005135;28;20230;-35
2023/07/07 04:39:07;;;;;;;5.20;3.93;;;13.70;99.90;;;;;;5009010;28;20221;-37
2023/07/07 04:41:33;;;;;;;5.43;4.20;;;13.70;99.90;;;;;;5019361;28;20237;-35
2023/07/07 04:44:00;;;;;;;6.40;4.30;;;13.80;99.90;;;;;;4992473;28;20179;-39
2023/07/07 04:46:29;;;;;;;6.90;4.20;;;13.80;99.90;;;;;;4994204;28;20259;-38
2023/07/07 04:48:55;;;;;;;7.10;4.37;;;13.90;99.90;;;;;;5009524;28;20341;-37
2023/07/07 04:51:21;;;;;;;5.60;4.47;;;13.90;99.90;;;;;;5014850;28;20182;-39
2023/07/07 04:53:47;;;;;;;7.47;4.60;;;14.00;99.90;;;;;;4993730;28;20239;-39
2023/07/07 04:56:17;;;;;;;6.67;4.60;;;14.00;99.90;;;;;;5002397;28;20194;-37
2023/07/07 04:58:46;;;;;;;6.70;4.60;;;14.10;99.90;;;;;;5026952;28;20217;-34
2023/07/07 05:01:19;;;;;;;7.63;4.23;;;14.10;99.90;;;;;;4994534;28;20183;-36
2023/07/07 05:03:51;;;;;;;6.47;4.83;;;14.20;99.90;;;;;;5008529;28;20246;-40
2023/07/07 05:06:18;;;;;;;6.03;4.17;;;14.30;99.90;;;;;;4990486;28;20322;-38
2023/07/07 05:08:44;;;;;;;5.33;4.00;;;14.30;99.90;;;;;;4992549;28;20443;-38
2023/07/07 05:11:13;;;;;;;5.00;4.40;;;14.40;99.90;;;;;;4992701;28;20273;-35
2023/07/07 05:13:39;;;;;;;7.23;4.37;;;14.30;99.90;;;;;;4996213;28;20204;-36
2023/07/07 05:16:14;;;;;;;5.47;4.43;;;14.40;99.90;;;;;;4992834;28;20183;-35
2023/07/07 05:18:40;;;;;;;6.07;4.60;;;14.40;99.90;;;;;;4999172;28;20289;-36
2023/07/07 05:21:08;;;;;;;5.37;4.33;;;14.50;99.90;;;;;;5001667;28;20172;-37
2023/07/07 05:23:38;;;;;;;7.07;4.13;;;14.50;99.90;;;;;;4991811;28;20290;-39
2023/07/07 05:26:04;;;;;;;6.40;4.73;;;14.40;99.90;;;;;;4994122;28;20187;-38
2023/07/07 05:28:30;;;;;;;5.33;4.53;;;14.40;99.90;;;;;;5008710;28;20324;-38
2023/07/07 05:30:56;;;;;;;5.93;4.20;;;14.50;99.90;;;;;;4985061;28;20271;-34
2023/07/07 05:33:22;;;;;;;4.93;4.43;;;14.60;99.90;;;;;;5005883;28;20207;-41
2023/07/07 05:35:53;;;;;;;6.83;4.43;;;14.70;99.90;;;;;;5005161;28;20183;-38
2023/07/07 05:38:24;;;;;;;7.27;4.97;;;14.80;99.90;;;;;;5007948;28;20219;-38
2023/07/07 05:40:50;;;;;;;10.60;4.80;;;15.00;99.90;;;;;;5002922;28;20187;-37
2023/07/07 05:43:18;;;;;;;6.33;5.07;;;15.10;99.90;;;;;;4985963;28;20184;-36
2023/07/07 05:45:45;;;;;;;6.50;4.17;;;15.20;99.90;;;;;;4999344;28;20187;-37
2023/07/07 05:48:12;;;;;;;7.90;4.87;;;15.40;99.90;;;;;;5003267;28;20206;-39
2023/07/07 05:50:40;;;;;;;6.80;4.70;;;15.60;99.90;;;;;;4992412;28;20270;-34
2023/07/07 05:53:06;;;;;;;7.13;5.00;;;15.70;99.90;;;;;;5002761;28;20207;-39
2023/07/07 05:55:34;;;;;;;7.80;4.40;;;15.80;99.90;;;;;;4992375;28;20206;-42
2023/07/07 05:58:01;;;;;;;5.60;4.57;;;16.00;99.90;;;;;;4988830;28;20696;-39
2023/07/07 06:00:28;;;;;;;6.27;4.33;;;16.20;99.90;;;;;;5007332;28;20175;-39
2023/07/07 06:02:54;;;;;;;4.87;4.07;;;16.30;99.90;;;;;;4990651;28;20176;-40
2023/07/07 06:05:20;;;;;;;11.13;4.83;;;16.50;99.90;;;;;;5005426;28;20187;-37
2023/07/07 06:07:47;;;;;;;6.97;4.67;;;16.60;99.90;;;;;;4991319;28;20274;-40
2023/07/07 06:10:13;;;;;;;8.07;5.30;;;16.80;99.90;;;;;;4998535;28;20188;-40
2023/07/07 06:12:39;;;;;;;8.20;5.07;;;17.00;99.90;;;;;;5009921;28;20279;-37
2023/07/07 06:15:07;;;;;;;5.97;4.77;;;17.10;99.90;;;;;;5002364;28;20270;-41
2023/07/07 06:17:33;;;;;;;7.90;4.93;;;17.10;99.90;;;;;;5004559;28;20295;-38
2023/07/07 06:19:59;;;;;;;9.00;4.72;;;17.20;99.90;;;;;;4998001;28;20267;-40
2023/07/07 06:22:25;;;;;;;7.00;4.70;;;17.30;99.90;;;;;;4986807;28;20202;-40
2023/07/07 06:24:54;;;;;;;5.53;4.47;;;17.40;99.90;;;;;;4991586;28;20182;-37
2023/07/07 06:27:20;;;;;;;4.97;4.40;;;17.60;99.90;;;;;;4998610;28;21718;-40
2023/07/07 06:29:46;;;;;;;6.53;4.60;;;17.70;99.90;;;;;;5008708;28;20179;-40
2023/07/07 06:32:12;;;;;;;6.50;4.43;;;17.80;99.90;;;;;;4998760;28;20203;-39
2023/07/07 06:34:38;;;;;;;5.10;4.57;;;18.00;99.90;;;;;;4994996;28;20190;-37
2023/07/07 06:37:05;;;;;;;5.50;4.38;;;18.10;99.90;;;;;;5004481;28;20230;-40
2023/07/07 06:39:30;;;;;;;5.07;3.88;;;18.30;99.90;;;;;;4993016;28;20198;-38
2023/07/07 06:41:59;;;;;;;7.07;4.20;;;18.50;99.90;;;;;;5001163;28;20246;-40
2023/07/07 06:44:25;;;;;;;5.32;3.80;;;18.70;99.90;;;;;;4993222;28;20735;-38
2023/07/07 06:46:51;;;;;;;5.13;3.60;;;18.90;99.90;;;;;;4990648;28;20290;-40
2023/07/07 06:49:16;;;;;;;6.07;4.30;;;19.10;99.90;;;;;;5003515;28;20187;-39
2023/07/07 06:51:42;;;;;;;6.22;4.28;;;19.30;99.90;;;;;;4992752;28;20183;-37
2023/07/07 06:54:08;;;;;;;5.30;4.40;;;19.40;99.90;;;;;;4993397;28;20214;-37
2023/07/07 06:56:34;;;;;;;5.85;4.53;;;19.60;99.90;;;;;;4992871;28;20195;-41
2023/07/07 06:59:00;;;;;;;4.88;4.07;;;19.70;99.90;;;;;;5013100;28;20234;-36
2023/07/07 07:01:25;;;;;;;5.07;3.90;;;19.90;99.90;;;;;;5002141;28;20297;-41
2023/07/07 07:03:51;;;;;;;5.78;4.10;;;20.00;99.90;;;;;;5002040;28;20205;-39
2023/07/07 07:06:17;;;;;;;7.15;3.97;;;20.10;99.90;;;;;;5001382;28;20188;-41
2023/07/07 07:08:43;;;;;;;7.85;4.50;;;20.20;99.90;;;;;;4995439;28;20408;-40
2023/07/07 07:11:09;;;;;;;5.03;3.92;;;20.30;99.90;;;;;;5007968;28;20178;-37
2023/07/07 07:13:34;;;;;;;4.90;4.07;;;20.40;99.90;;;;;;5010850;28;20238;-38
2023/07/07 07:16:00;;;;;;;6.53;4.07;;;20.50;99.90;;;;;;5000261;28;20191;-38
2023/07/07 07:18:26;;;;;;;5.75;4.20;;;20.60;99.90;;;;;;5004629;28;20210;-40
2023/07/07 07:20:54;;;;;;;5.72;3.85;;;20.70;99.90;;;;;;5002197;28;20322;-41
2023/07/07 07:23:21;;;;;;;6.80;3.72;;;20.90;99.90;;;;;;4996504;28;20735;-39
2023/07/07 07:25:48;;;;;;;6.38;3.67;;;20.90;99.90;;;;;;4994189;28;20183;-38
2023/07/07 07:28:15;;;;;;;4.32;3.60;;;21.00;99.90;;;;;;5006877;28;20206;-39
2023/07/07 07:30:41;;;;;;;4.53;3.53;;;21.20;99.90;;;;;;4995691;28;20187;-40
2023/07/07 07:33:13;;;;;;;5.47;3.47;;;21.30;99.90;;;;;;5006003;28;20284;-41
2023/07/07 07:35:39;;;;;;;4.63;3.70;;;21.50;99.90;;;;;;4995650;28;20187;-39
2023/07/07 07:38:05;;;;;;;5.00;3.83;;;21.70;99.90;;;;;;5002147;28;20216;-41
2023/07/07 07:40:31;;;;;;;5.28;3.83;;;21.80;99.90;;;;;;4989373;28;20291;-41
2023/07/07 07:42:57;;;;;;;5.03;3.60;;;22.00;99.90;;;;;;5017455;28;20238;-40
2023/07/07 07:45:23;;;;;;;5.10;3.58;;;22.10;99.90;;;;;;5004996;28;20184;-40
2023/07/07 07:47:51;;;;;;;6.97;3.83;;;22.20;99.90;;;;;;5009177;28;20218;-41
2023/07/07 07:50:18;;;;;;;6.07;3.63;;;22.30;99.90;;;;;;5003758;28;20275;-37
2023/07/07 07:52:44;;;;;;;7.10;4.05;;;22.40;99.90;;;;;;4984726;28;20211;-39
2023/07/07 07:55:10;;;;;;;4.43;3.72;;;22.60;99.90;;;;;;5006075;28;20183;-41
2023/07/07 07:57:36;;;;;;;5.90;4.07;;;22.70;99.90;;;;;;4995472;28;20218;-40
2023/07/07 08:00:04;;;;;;;4.75;3.75;;;22.90;99.90;;;;;;4996456;28;20267;-37
2023/07/07 08:02:38;;;;;;;4.07;3.67;;;23.00;99.90;;;;;;5008780;28;20215;-41
2023/07/07 08:05:05;;;;;;;5.32;3.78;;;23.20;99.90;;;;;;4996278;28;20191;-40
2023/07/07 08:07:31;;;;;;;6.18;4.03;;;23.40;99.90;;;;;;4995618;28;20207;-41
2023/07/07 08:09:57;;;;;;;5.97;3.85;;;23.50;99.90;;;;;;4995740;28;20218;-41
2023/07/07 08:12:23;;;;;;;4.70;3.80;;;23.50;99.90;;;;;;5004082;28;20213;-40
2023/07/07 08:14:49;;;;;;;4.40;4.00;;;23.70;99.90;;;;;;4993035;28;20183;-40
2023/07/07 08:17:16;;;;;;;6.03;3.92;;;23.70;99.90;;;;;;5005917;28;20294;-41
2023/07/07 08:19:44;;;;;;;4.45;3.83;;;23.90;99.90;;;;;;4994513;28;20190;-39
2023/07/07 08:22:16;;;;;;;5.07;4.18;;;24.00;99.90;;;;;;4997113;28;20207;-39
2023/07/07 08:24:46;;;;;;;7.25;4.50;;;24.10;99.90;;;;;;4994680;28;20183;-39
2023/07/07 08:27:14;;;;;;;5.78;4.00;;;24.30;99.90;;;;;;5002413;28;20211;-40
2023/07/07 08:29:40;;;;;;;4.10;3.70;;;24.50;99.90;;;;;;5008571;28;20184;-39
2023/07/07 08:32:11;;;;;;;6.03;4.05;;;24.70;99.90;;;;;;5004746;28;20180;-41
2023/07/07 08:34:38;;;;;;;4.97;4.35;;;24.80;99.90;;;;;;4994988;28;20179;-41
2023/07/07 08:37:04;;;;;;;5.55;3.97;;;24.90;99.90;;;;;;5001146;28;20200;-41
2023/07/07 08:39:30;;;;;;;5.22;3.92;;;25.20;99.90;;;;;;4998994;28;20225;-40
2023/07/07 08:42:00;;;;;;;3.97;3.58;;;25.40;99.90;;;;;;5003976;28;20183;-40
2023/07/07 08:44:28;;;;;;;4.43;4.03;;;25.70;99.90;;;;;;4992092;28;20199;-41
2023/07/07 08:47:12;;;;;;;4.20;3.72;;;25.70;99.90;;;;;;5018742;28;20191;-38
2023/07/07 08:49:58;;;;;;;4.65;3.78;;;25.70;99.90;;;;;;4994449;28;20276;-43
2023/07/07 08:52:49;;;;;;;4.78;4.20;;;25.90;99.90;;;;;;5006740;28;20214;-39
2023/07/07 08:55:50;;;;;;;5.40;3.63;;;26.00;99.90;;;;;;4981150;28;20207;-41
2023/07/07 08:58:18;;;;;;;4.68;3.95;;;26.10;99.90;;;;;;5005150;28;20246;-41
2023/07/07 09:00:47;;;;;;;5.07;4.50;;;26.40;99.90;;;;;;4993531;28;20190;-41
2023/07/07 09:03:37;;;;;;;5.47;3.97;;;26.50;99.90;;;;;;5001776;28;20275;-41
2023/07/07 09:06:19;;;;;;;6.93;4.65;;;26.60;99.90;;;;;;5003770;28;20270;-41
2023/07/07 09:09:17;;;;;;;5.70;4.53;;;26.90;99.90;;;;;;4996497;28;20214;-42
2023/07/07 09:12:17;;;;;;;7.03;4.53;;;27.10;99.90;;;;;;5003443;28;20183;-41
2023/07/07 09:14:47;;;;;;;6.40;4.40;;;27.30;99.90;;;;;;4993686;28;20198;-41
2023/07/07 09:17:19;;;;;;;7.63;4.30;;;27.50;99.90;;;;;;5004604;28;20214;-42
2023/07/07 09:19:47;;;;;;;6.13;4.57;;;27.70;99.90;;;;;;4992716;28;20192;-42
2023/07/07 09:22:51;;;;;;;7.68;4.85;;;27.90;99.90;;;;;;4996474;28;20186;-42
2023/07/07 09:25:17;;;;;;;7.00;4.95;;;28.20;99.90;;;;;;5002968;28;20695;-42
2023/07/07 09:27:47;;;;;;;6.13;5.20;;;28.40;99.90;;;;;;5013255;28;20208;-42
2023/07/07 09:30:34;;;;;;;8.07;5.32;;;28.50;99.90;;;;;;5003581;28;20658;-42
2023/07/07 09:33:00;;;;;;;6.50;5.20;;;28.70;99.90;;;;;;4994385;28;20277;-42
2023/07/07 09:35:36;;;;;;;10.23;5.88;;;28.90;99.90;;;;;;4993708;28;20211;-41
2023/07/07 09:38:20;;;;;;;6.47;5.03;;;29.00;99.90;;;;;;5001306;28;20219;-42
2023/07/07 09:40:51;;;;;;;6.43;5.30;;;29.20;99.90;;;;;;5002151;28;20183;-42
2023/07/07 09:43:29;;;;;;;6.22;5.60;;;29.30;99.90;;;;;;4998843;28;20195;-41
2023/07/07 09:45:58;;;;;;;8.30;5.60;;;29.40;99.90;;;;;;5009407;28;20182;-42
2023/07/07 09:48:36;;;;;;;8.07;6.28;;;29.60;99.90;;;;;;4994355;28;20207;-41
2023/07/07 09:51:31;;;;;;;6.80;5.80;;;29.80;99.90;;;;;;5006676;28;20191;-43
2023/07/07 09:53:57;;;;;;;7.07;6.25;;;29.90;99.90;;;;;;5001545;28;20310;-42
2023/07/07 09:56:31;;;;;;;9.27;6.03;;;29.90;99.60;;;;;;5010250;28;20183;-42
2023/07/07 09:59:05;;;;;;;7.38;5.63;;;29.90;99.40;;;;;;4990450;28;20212;-42
2023/07/07 10:01:37;;;;;;;7.90;5.70;;;29.60;99.80;;;;;;4990670;28;20267;-42
2023/07/07 10:04:10;;;;;;;7.13;5.60;;;29.70;99.60;;;;;;4990645;28;20211;-42
2023/07/07 10:06:50;;;;;;;7.38;5.50;;;29.80;99.40;;;;;;4990644;28;20258;-42
2023/07/07 10:09:16;;;;;;;8.95;5.85;;;29.90;99.90;;;;;;4985517;28;20213;-42
2023/07/07 10:11:44;;;;;;;8.75;6.10;;;30.00;98.10;;;;;;5011758;28;20222;-42
2023/07/07 10:14:13;;;;;;;8.30;7.03;;;30.10;98.70;;;;;;4999491;28;20262;-43
2023/07/07 10:17:18;;;;;;;10.98;7.63;;;30.00;95.20;;;;;;4989754;28;20187;-41
2023/07/07 10:19:50;;;;;;;9.20;7.00;;;30.10;92.90;;;;;;4973763;28;20203;-40
2023/07/07 10:22:16;;;;;;;12.18;7.22;;;30.20;94.00;;;;;;4999843;28;20191;-43
2023/07/07 10:24:42;;;;;;;8.38;7.20;;;30.20;93.90;;;;;;4973861;28;20247;-43
2023/07/07 10:27:22;;;;;;;9.13;7.43;;;30.30;93.50;;;;;;4992129;28;20171;-42
2023/07/07 10:29:49;;;;;;;8.07;7.10;;;30.60;93.30;;;;;;4990780;28;20187;-43
2023/07/07 10:32:22;;;;;;;9.80;6.80;;;30.70;91.80;;;;;;5006425;28;20180;-42
2023/07/07 10:34:52;;;;;;;10.48;8.00;;;30.70;90.60;;;;;;5007401;28;20187;-41
2023/07/07 10:37:28;;;;;;;9.57;7.13;;;30.70;89.30;;;;;;4992038;28;20250;-42
2023/07/07 10:39:57;;;;;;;11.18;7.97;;;30.90;89.00;;;;;;4993131;28;20214;-42
2023/07/07 10:42:24;;;;;;;11.60;8.15;;;30.70;86.60;;;;;;5001398;28;20191;-42
2023/07/07 10:44:51;;;;;;;10.20;7.07;;;30.30;84.80;;;;;;4992973;28;20229;-41
2023/07/07 10:47:25;;;;;;;8.07;6.65;;;29.90;90.00;;;;;;4989501;28;20198;-41
2023/07/07 10:49:51;;;;;;;8.60;6.95;;;30.20;90.50;;;;;;5005586;28;20179;-41
2023/07/07 10:52:35;;;;;;;8.60;6.93;;;30.10;89.00;;;;;;4995755;28;20278;-42
2023/07/07 10:55:19;;;;;;;9.38;7.15;;;30.30;87.70;;;;;;5006384;28;20184;-42
2023/07/07 10:57:58;;;;;;;10.07;7.22;;;30.30;88.20;;;;;;5021724;28;20207;-41
2023/07/07 11:00:42;;;;;;;8.07;6.82;;;30.50;87.40;;;;;;4997554;28;20191;-42
2023/07/07 11:03:14;;;;;;;8.23;6.53;;;30.60;88.10;;;;;;5015167;28;20211;-42
2023/07/07 11:05:45;;;;;;;9.20;6.30;;;30.50;87.30;;;;;;4986858;28;20257;-42
2023/07/07 11:08:11;;;;;;;9.90;6.80;;;30.80;89.00;;;;;;4999307;28;20258;-42
2023/07/07 11:10:55;;;;;;;9.23;6.70;;;30.90;86.20;;;;;;5006099;28;20186;-43
2023/07/07 11:13:33;;;;;;;10.27;6.15;;;31.20;89.70;;;;;;4992931;28;20294;-43
2023/07/07 11:16:18;;;;;;;7.93;6.07;;;31.00;85.30;;;;;;4997984;28;20184;-42
2023/07/07 11:18:58;;;;;;;7.93;6.07;;;31.20;89.50;;;;;;5004393;28;20203;-42
2023/07/07 11:21:39;;;;;;;7.03;6.18;;;31.50;86.30;;;;;;4992242;28;20199;-42
2023/07/07 11:24:13;;;;;;;10.23;6.40;;;31.50;83.90;;;;;;5002464;28;20230;-42
2023/07/07 11:27:01;;;;;;;6.85;6.15;;;31.80;86.70;;;;;;5000949;28;20176;-42
2023/07/07 11:29:33;;;;;;;7.35;6.10;;;31.90;82.00;;;;;;5008948;28;20211;-43
2023/07/07 11:32:29;;;;;;;8.00;6.00;;;31.80;82.10;;;;;;4990950;28;20181;-41
2023/07/07 11:35:13;;;;;;;6.65;5.85;;;31.90;83.00;;;;;;5006503;28;20176;-42
2023/07/07 11:38:21;;;;;;;8.90;6.10;;;32.10;83.10;;;;;;4990713;28;20211;-43
2023/07/07 11:41:03;;;;;;;7.32;5.95;;;32.50;84.80;;;;;;4982273;28;20215;-43
2023/07/07 11:43:35;;;;;;;6.65;5.32;;;32.80;82.70;;;;;;5005411;28;20266;-41
2023/07/07 11:46:39;;;;;;;9.50;5.68;;;32.90;80.90;;;;;;4993002;28;20175;-42
2023/07/07 11:49:25;;;;;;;8.23;5.57;;;33.00;79.90;;;;;;5008209;28;20199;-43
2023/07/07 11:52:14;;;;;;;7.45;6.05;;;33.10;80.30;;;;;;5012199;28;20195;-42
2023/07/07 11:55:00;;;;;;;7.47;5.90;;;33.10;79.60;;;;;;4995526;28;20180;-43
2023/07/07 11:57:46;;;;;;;7.75;5.93;;;33.30;80.00;;;;;;4981292;28;20269;-42
2023/07/07 12:00:15;;;;;;;9.30;5.50;;;32.40;78.70;;;;;;5019101;28;20175;-43
2023/07/07 12:03:14;;;;;;;7.45;5.70;;;32.70;80.30;;;;;;5012572;28;20195;-43
2023/07/07 12:05:45;;;;;;;7.30;5.65;;;32.70;78.70;;;;;;4979031;28;20219;-43
2023/07/07 12:08:17;;;;;;;6.20;5.60;;;32.70;78.90;;;;;;5001015;28;20211;-43
2023/07/07 12:10:51;;;;;;;6.30;5.47;;;32.90;78.90;;;;;;4996276;28;20214;-42
2023/07/07 12:13:32;;;;;;;7.22;5.75;;;32.90;78.90;;;;;;4993737;28;20238;-43
2023/07/07 12:16:19;;;;;;;7.43;5.53;;;32.80;80.20;;;;;;4992429;28;20179;-42
2023/07/07 12:19:10;;;;;;;8.18;5.63;;;33.10;80.30;;;;;;4991939;28;20260;-43
2023/07/07 12:21:40;;;;;;;8.98;5.47;;;33.40;79.50;;;;;;5004519;28;20188;-43
2023/07/07 12:24:23;;;;;;;8.13;5.65;;;33.30;79.30;;;;;;4992646;28;20184;-43
2023/07/07 12:27:09;;;;;;;7.10;5.35;;;33.60;80.50;;;;;;4994817;28;20222;-42
2023/07/07 12:29:42;;;;;;;7.85;5.78;;;33.70;78.90;;;;;;5001967;28;20184;-43
2023/07/07 12:32:09;;;;;;;6.45;5.18;;;33.70;77.50;;;;;;4993781;28;20389;-42
2023/07/07 12:34:44;;;;;;;9.00;5.25;;;33.60;76.40;;;;;;4997048;28;20187;-41
2023/07/07 12:37:21;;;;;;;6.80;5.57;;;33.20;77.70;;;;;;5014654;28;20226;-42
2023/07/07 12:39:59;;;;;;;7.60;5.50;;;33.20;76.40;;;;;;5008483;28;20183;-42
2023/07/07 12:42:31;;;;;;;6.28;5.07;;;33.40;76.30;;;;;;4992501;28;20180;-41
2023/07/07 12:45:26;;;;;;;8.70;5.53;;;33.20;76.20;;;;;;5027442;28;20274;-41
2023/07/07 12:48:01;;;;;;;6.60;4.90;;;33.20;75.50;;;;;;5007146;28;20672;-43
2023/07/07 12:50:36;;;;;;;6.85;5.15;;;33.40;75.40;;;;;;5002118;28;20197;-42
2023/07/07 12:53:20;;;;;;;6.05;5.13;;;33.80;78.00;;;;;;5018771;28;20210;-42
2023/07/07 12:56:12;;;;;;;7.85;5.35;;;33.50;76.90;;;;;;5029893;28;20196;-42
2023/07/07 12:59:24;;;;;;;6.55;4.90;;;33.50;75.20;;;;;;5015845;28;20243;-43
2023/07/07 13:02:12;;;;;;;6.95;5.47;;;33.80;76.70;;;;;;5031095;28;20175;-43
2023/07/07 13:04:49;;;;;;;6.93;5.50;;;33.80;76.30;;;;;;5000519;28;20278;-42
2023/07/07 13:07:21;;;;;;;6.78;5.63;;;34.20;76.20;;;;;;5017364;28;20289;-42
2023/07/07 13:09:50;;;;;;;5.90;5.22;;;34.10;74.40;;;;;;5018767;28;20211;-43